sensor_id;sensor_type;location;lat;lon;timestamp;pressure;altitude;pressure_sealevel;temperature;humidity
58947;BME280;44724;52.332;4.978;2022-10-31T00:02:10;102191.41;;;11.36;100.00
58947;BME280;44724;52.332;4.978;2022-10-31T00:04:35;102193.09;;;11.37;100.00
58947;BME280;44724;52.332;4.978;2022-10-31T00:07:01;102190.59;;;11.36;100.00
58947;BME280;44724;52.332;4.978;2022-10-31T00:09:26;102197.47;;;11.33;100.00
58947;BME280;44724;52.332;4.978;2022-10-31T00:11:52;102195.00;;;11.32;100.00
58947;BME280;44724;52.332;4.978;2022-10-31T00:14:17;102184.97;;;11.31;100.00
58947;BME280;44724;52.332;4.978;2022-10-31T00:16:42;102181.91;;;11.27;100.00
58947;BME280;44724;52.332;4.978;2022-10-31T00:19:08;102182.16;;;11.26;100.00
58947;BME280;44724;52.332;4.978;2022-10-31T00:21:34;102177.41;;;11.21;100.00
58947;BME280;44724;52.332;4.978;2022-10-31T00:24:00;102177.69;;;11.19;100.00
58947;BME280;44724;52.332;4.978;2022-10-31T00:26:30;102189.00;;;11.18;100.00
58947;BME280;44724;52.332;4.978;2022-10-31T00:28:58;102202.63;;;11.19;100.00
58947;BME280;44724;52.332;4.978;2022-10-31T00:31:24;102206.22;;;11.20;100.00
58947;BME280;44724;52.332;4.978;2022-10-31T00:33:49;102210.34;;;11.17;100.00
58947;BME280;44724;52.332;4.978;2022-10-31T00:36:18;102203.69;;;11.18;100.00
58947;BME280;44724;52.332;4.978;2022-10-31T00:38:45;102212.84;;;11.19;100.00
58947;BME280;44724;52.332;4.978;2022-10-31T00:41:12;102216.72;;;11.18;100.00
58947;BME280;44724;52.332;4.978;2022-10-31T00:43:40;102208.66;;;11.16;100.00
58947;BME280;44724;52.332;4.978;2022-10-31T00:46:05;102201.44;;;11.15;100.00
58947;BME280;44724;52.332;4.978;2022-10-31T00:48:31;102193.13;;;11.15;100.00
58947;BME280;44724;52.332;4.978;2022-10-31T00:50:56;102186.75;;;11.15;100.00
58947;BME280;44724;52.332;4.978;2022-10-31T00:53:22;102191.72;;;11.13;100.00
58947;BME280;44724;52.332;4.978;2022-10-31T00:55:48;102196.94;;;11.09;100.00
58947;BME280;44724;52.332;4.978;2022-10-31T00:58:14;102198.59;;;11.10;100.00
58947;BME280;44724;52.332;4.978;2022-10-31T01:00:39;102188.91;;;11.08;100.00
58947;BME280;44724;52.332;4.978;2022-10-31T01:03:06;102200.22;;;11.06;100.00
58947;BME280;44724;52.332;4.978;2022-10-31T01:05:31;102200.22;;;11.06;100.00
58947;BME280;44724;52.332;4.978;2022-10-31T01:07:58;102200.50;;;11.04;100.00
58947;BME280;44724;52.332;4.978;2022-10-31T01:10:25;102210.22;;;11.07;100.00
58947;BME280;44724;52.332;4.978;2022-10-31T01:12:51;102204.69;;;11.07;100.00
58947;BME280;44724;52.332;4.978;2022-10-31T01:15:19;102197.47;;;11.06;100.00
58947;BME280;44724;52.332;4.978;2022-10-31T01:17:45;102196.06;;;11.03;100.00
58947;BME280;44724;52.332;4.978;2022-10-31T01:20:12;102199.91;;;11.02;100.00
58947;BME280;44724;52.332;4.978;2022-10-31T01:22:38;102205.13;;;10.99;100.00
58947;BME280;44724;52.332;4.978;2022-10-31T01:25:04;102197.34;;;10.96;100.00
58947;BME280;44724;52.332;4.978;2022-10-31T01:27:31;102192.34;;;10.93;100.00
58947;BME280;44724;52.332;4.978;2022-10-31T01:29:56;102195.03;;;10.88;100.00
58947;BME280;44724;52.332;4.978;2022-10-31T01:32:26;102191.97;;;10.84;100.00
58947;BME280;44724;52.332;4.978;2022-10-31T01:34:54;102179.44;;;10.81;100.00
58947;BME280;44724;52.332;4.978;2022-10-31T01:37:19;102176.09;;;10.79;100.00
58947;BME280;44724;52.332;4.978;2022-10-31T01:39:45;102186.03;;;10.75;100.00
58947;BME280;44724;52.332;4.978;2022-10-31T01:42:17;102180.44;;;10.70;100.00
58947;BME280;44724;52.332;4.978;2022-10-31T01:44:50;102177.34;;;10.67;100.00
58947;BME280;44724;52.332;4.978;2022-10-31T01:47:19;102178.09;;;10.62;100.00
58947;BME280;44724;52.332;4.978;2022-10-31T01:57:21;102179.31;;;10.49;100.00
58947;BME280;44724;52.332;4.978;2022-10-31T01:59:55;102179.00;;;10.45;100.00
58947;BME280;44724;52.332;4.978;2022-10-31T02:02:22;102189.50;;;10.43;100.00
58947;BME280;44724;52.332;4.978;2022-10-31T02:04:49;102196.69;;;10.44;100.00
58947;BME280;44724;52.332;4.978;2022-10-31T02:07:21;102187.81;;;10.42;100.00
58947;BME280;44724;52.332;4.978;2022-10-31T02:09:53;102188.91;;;10.41;100.00
58947;BME280;44724;52.332;4.978;2022-10-31T02:12:19;102183.88;;;10.38;100.00
58947;BME280;44724;52.332;4.978;2022-10-31T02:14:46;102180.78;;;10.35;100.00
58947;BME280;44724;52.332;4.978;2022-10-31T02:17:12;102172.38;;;10.30;100.00
58947;BME280;44724;52.332;4.978;2022-10-31T02:19:58;102167.94;;;10.28;100.00
58947;BME280;44724;52.332;4.978;2022-10-31T02:22:31;102161.25;;;10.24;100.00
58947;BME280;44724;52.332;4.978;2022-10-31T02:33:27;102165.22;;;10.12;100.00
58947;BME280;44724;52.332;4.978;2022-10-31T02:36:11;102171.00;;;10.10;100.00
58947;BME280;44724;52.332;4.978;2022-10-31T02:39:01;102165.97;;;10.07;100.00
58947;BME280;44724;52.332;4.978;2022-10-31T02:42:07;102166.75;;;10.02;100.00
58947;BME280;44724;52.332;4.978;2022-10-31T02:44:36;102164.47;;;9.99;100.00
58947;BME280;44724;52.332;4.978;2022-10-31T02:47:08;102163.31;;;9.95;100.00
58947;BME280;44724;52.332;4.978;2022-10-31T02:49:57;102164.06;;;9.90;100.00
58947;BME280;44724;52.332;4.978;2022-10-31T02:52:26;102163.72;;;9.87;100.00
58947;BME280;44724;52.332;4.978;2022-10-31T02:54:58;102158.69;;;9.84;100.00
58947;BME280;44724;52.332;4.978;2022-10-31T02:57:35;102168.34;;;9.81;100.00
58947;BME280;44724;52.332;4.978;2022-10-31T03:00:07;102166.91;;;9.79;100.00
58947;BME280;44724;52.332;4.978;2022-10-31T03:02:44;102167.44;;;9.76;100.00
58947;BME280;44724;52.332;4.978;2022-10-31T03:08:29;102162.31;;;9.67;100.00
58947;BME280;44724;52.332;4.978;2022-10-31T03:11:08;102173.38;;;9.67;100.00
58947;BME280;44724;52.332;4.978;2022-10-31T03:16:47;102192.56;;;9.74;100.00
58947;BME280;44724;52.332;4.978;2022-10-31T03:19:37;102196.41;;;9.73;100.00
58947;BME280;44724;52.332;4.978;2022-10-31T03:22:07;102195.00;;;9.70;100.00
58947;BME280;44724;52.332;4.978;2022-10-31T03:24:38;102188.28;;;9.66;100.00
58947;BME280;44724;52.332;4.978;2022-10-31T03:27:07;102184.91;;;9.64;100.00
58947;BME280;44724;52.332;4.978;2022-10-31T03:29:36;102189.88;;;9.62;100.00
58947;BME280;44724;52.332;4.978;2022-10-31T03:32:10;102190.53;;;9.69;100.00
58947;BME280;44724;52.332;4.978;2022-10-31T03:34:39;102196.06;;;9.69;100.00
58947;BME280;44724;52.332;4.978;2022-10-31T03:37:07;102198.09;;;9.74;100.00
58947;BME280;44724;52.332;4.978;2022-10-31T03:39:36;102194.22;;;9.75;100.00
58947;BME280;44724;52.332;4.978;2022-10-31T03:42:15;102195.06;;;9.76;100.00
58947;BME280;44724;52.332;4.978;2022-10-31T03:44:46;102193.13;;;9.76;100.00
58947;BME280;44724;52.332;4.978;2022-10-31T03:47:12;102198.91;;;9.75;100.00
58947;BME280;44724;52.332;4.978;2022-10-31T03:49:38;102201.19;;;9.78;100.00
58947;BME280;44724;52.332;4.978;2022-10-31T03:52:23;102215.69;;;9.85;100.00
58947;BME280;44724;52.332;4.978;2022-10-31T03:54:57;102212.91;;;9.85;100.00
58947;BME280;44724;52.332;4.978;2022-10-31T03:57:43;102208.22;;;9.85;100.00
58947;BME280;44724;52.332;4.978;2022-10-31T04:00:12;102214.31;;;9.87;100.00
58947;BME280;44724;52.332;4.978;2022-10-31T04:02:57;102211.66;;;9.93;100.00
58947;BME280;44724;52.332;4.978;2022-10-31T04:05:26;102210.25;;;9.90;100.00
58947;BME280;44724;52.332;4.978;2022-10-31T04:07:58;102209.75;;;9.93;100.00
58947;BME280;44724;52.332;4.978;2022-10-31T04:10:26;102214.16;;;9.94;100.00
58947;BME280;44724;52.332;4.978;2022-10-31T04:13:01;102214.75;;;9.96;100.00
58947;BME280;44724;52.332;4.978;2022-10-31T04:15:36;102212.50;;;9.93;100.00
58947;BME280;44724;52.332;4.978;2022-10-31T04:18:04;102206.97;;;9.93;100.00
58947;BME280;44724;52.332;4.978;2022-10-31T04:20:36;102207.47;;;9.90;100.00
58947;BME280;44724;52.332;4.978;2022-10-31T04:23:02;102204.72;;;9.90;100.00
58947;BME280;44724;52.332;4.978;2022-10-31T04:25:29;102199.66;;;9.87;100.00
58947;BME280;44724;52.332;4.978;2022-10-31T04:28:04;102190.22;;;9.83;100.00
58947;BME280;44724;52.332;4.978;2022-10-31T04:30:29;102192.41;;;9.81;100.00
58947;BME280;44724;52.332;4.978;2022-10-31T04:32:55;102192.97;;;9.83;100.00
58947;BME280;44724;52.332;4.978;2022-10-31T04:35:20;102198.84;;;9.86;100.00
58947;BME280;44724;52.332;4.978;2022-10-31T04:37:46;102206.31;;;9.86;100.00
58947;BME280;44724;52.332;4.978;2022-10-31T04:40:12;102199.09;;;9.85;100.00
58947;BME280;44724;52.332;4.978;2022-10-31T04:42:40;102202.44;;;9.87;100.00
58947;BME280;44724;52.332;4.978;2022-10-31T04:45:06;102198.50;;;9.83;100.00
58947;BME280;44724;52.332;4.978;2022-10-31T04:47:33;102198.50;;;9.83;100.00
58947;BME280;44724;52.332;4.978;2022-10-31T04:50:00;102192.91;;;9.78;100.00
58947;BME280;44724;52.332;4.978;2022-10-31T04:52:26;102187.03;;;9.74;100.00
58947;BME280;44724;52.332;4.978;2022-10-31T04:54:52;102181.50;;;9.74;100.00
58947;BME280;44724;52.332;4.978;2022-10-31T04:57:43;102188.88;;;9.68;100.00
58947;BME280;44724;52.332;4.978;2022-10-31T05:00:10;102191.56;;;9.63;100.00
58947;BME280;44724;52.332;4.978;2022-10-31T05:02:43;102185.34;;;9.56;100.00
58947;BME280;44724;52.332;4.978;2022-10-31T05:05:09;102181.38;;;9.52;100.00
58947;BME280;44724;52.332;4.978;2022-10-31T05:07:38;102176.88;;;9.46;100.00
58947;BME280;44724;52.332;4.978;2022-10-31T05:10:08;102172.59;;;9.38;100.00
58947;BME280;44724;52.332;4.978;2022-10-31T05:12:35;102165.31;;;9.32;100.00
58947;BME280;44724;52.332;4.978;2022-10-31T05:15:22;102161.38;;;9.28;100.00
58947;BME280;44724;52.332;4.978;2022-10-31T05:18:06;102166.56;;;9.24;100.00
58947;BME280;44724;52.332;4.978;2022-10-31T05:20:41;102169.56;;;9.23;100.00
58947;BME280;44724;52.332;4.978;2022-10-31T05:23:18;102166.47;;;9.19;100.00
58947;BME280;44724;52.332;4.978;2022-10-31T05:25:43;102164.78;;;9.18;100.00
58947;BME280;44724;52.332;4.978;2022-10-31T05:28:09;102169.47;;;9.18;100.00
58947;BME280;44724;52.332;4.978;2022-10-31T05:30:35;102172.22;;;9.18;100.00
58947;BME280;44724;52.332;4.978;2022-10-31T05:33:01;102167.44;;;9.13;100.00
58947;BME280;44724;52.332;4.978;2022-10-31T05:35:55;102171.06;;;9.13;100.00
58947;BME280;44724;52.332;4.978;2022-10-31T05:38:21;102167.44;;;9.13;100.00
58947;BME280;44724;52.332;4.978;2022-10-31T05:40:46;102169.38;;;9.12;100.00
58947;BME280;44724;52.332;4.978;2022-10-31T05:43:14;102174.63;;;9.14;100.00
58947;BME280;44724;52.332;4.978;2022-10-31T05:45:39;102171.28;;;9.12;100.00
58947;BME280;44724;52.332;4.978;2022-10-31T05:48:10;102167.94;;;9.10;100.00
58947;BME280;44724;52.332;4.978;2022-10-31T05:51:01;102167.94;;;9.10;100.00
58947;BME280;44724;52.332;4.978;2022-10-31T05:53:27;102161.56;;;9.09;100.00
58947;BME280;44724;52.332;4.978;2022-10-31T05:55:55;102148.53;;;9.05;100.00
58947;BME280;44724;52.332;4.978;2022-10-31T05:58:21;102152.34;;;9.04;100.00
58947;BME280;44724;52.332;4.978;2022-10-31T06:00:52;102153.22;;;9.04;100.00
58947;BME280;44724;52.332;4.978;2022-10-31T06:03:18;102139.66;;;9.03;100.00
58947;BME280;44724;52.332;4.978;2022-10-31T06:05:48;102133.03;;;9.04;100.00
58947;BME280;44724;52.332;4.978;2022-10-31T06:08:14;102134.72;;;9.05;100.00
58947;BME280;44724;52.332;4.978;2022-10-31T06:10:40;102135.78;;;9.04;100.00
58947;BME280;44724;52.332;4.978;2022-10-31T06:13:06;102136.03;;;9.02;100.00
58947;BME280;44724;52.332;4.978;2022-10-31T06:15:44;102147.94;;;9.03;100.00
58947;BME280;44724;52.332;4.978;2022-10-31T06:18:10;102139.56;;;8.98;100.00
58947;BME280;44724;52.332;4.978;2022-10-31T06:20:44;102138.34;;;8.93;100.00
58947;BME280;44724;52.332;4.978;2022-10-31T06:23:10;102135.00;;;8.91;100.00
58947;BME280;44724;52.332;4.978;2022-10-31T06:25:36;102139.34;;;8.87;100.00
58947;BME280;44724;52.332;4.978;2022-10-31T06:28:03;102135.41;;;8.83;100.00
58947;BME280;44724;52.332;4.978;2022-10-31T06:30:46;102140.34;;;8.81;100.00
58947;BME280;44724;52.332;4.978;2022-10-31T06:33:11;102136.50;;;8.82;100.00
58947;BME280;44724;52.332;4.978;2022-10-31T06:35:47;102150.78;;;8.79;100.00
58947;BME280;44724;52.332;4.978;2022-10-31T06:38:13;102150.53;;;8.81;100.00
58947;BME280;44724;52.332;4.978;2022-10-31T06:40:41;102162.44;;;8.81;100.00
58947;BME280;44724;52.332;4.978;2022-10-31T06:43:20;102165.78;;;8.83;100.00
58947;BME280;44724;52.332;4.978;2022-10-31T06:45:45;102164.19;;;8.87;100.00
58947;BME280;44724;52.332;4.978;2022-10-31T06:48:27;102173.66;;;8.91;100.00
58947;BME280;44724;52.332;4.978;2022-10-31T06:51:31;102175.34;;;8.92;100.00
58947;BME280;44724;52.332;4.978;2022-10-31T06:53:56;102164.06;;;8.94;100.00
58947;BME280;44724;52.332;4.978;2022-10-31T06:56:24;102165.47;;;8.97;100.00
58947;BME280;44724;52.332;4.978;2022-10-31T06:58:53;102162.72;;;8.97;100.00
58947;BME280;44724;52.332;4.978;2022-10-31T07:01:33;102165.81;;;9.00;100.00
58947;BME280;44724;52.332;4.978;2022-10-31T07:04:00;102172.53;;;9.04;100.00
58947;BME280;44724;52.332;4.978;2022-10-31T07:06:25;102168.19;;;9.08;100.00
58947;BME280;44724;52.332;4.978;2022-10-31T07:08:51;102181.00;;;9.14;100.00
58947;BME280;44724;52.332;4.978;2022-10-31T07:11:16;102193.00;;;9.20;100.00
58947;BME280;44724;52.332;4.978;2022-10-31T07:13:45;102193.06;;;9.25;100.00
58947;BME280;44724;52.332;4.978;2022-10-31T07:16:10;102189.81;;;9.28;100.00
58947;BME280;44724;52.332;4.978;2022-10-31T07:18:38;102193.50;;;9.34;100.00
58947;BME280;44724;52.332;4.978;2022-10-31T07:21:05;102209.34;;;9.39;100.00
58947;BME280;44724;52.332;4.978;2022-10-31T07:23:36;102216.38;;;9.46;100.00
58947;BME280;44724;52.332;4.978;2022-10-31T07:26:37;102215.16;;;9.54;100.00
58947;BME280;44724;52.332;4.978;2022-10-31T07:29:02;102229.38;;;9.63;100.00
58947;BME280;44724;52.332;4.978;2022-10-31T07:31:27;102227.03;;;9.71;100.00
58947;BME280;44724;52.332;4.978;2022-10-31T07:33:57;102229.66;;;9.78;100.00
58947;BME280;44724;52.332;4.978;2022-10-31T07:36:25;102229.00;;;9.88;100.00
58947;BME280;44724;52.332;4.978;2022-10-31T07:38:52;102230.75;;;9.94;100.00
58947;BME280;44724;52.332;4.978;2022-10-31T07:41:18;102232.25;;;10.02;100.00
58947;BME280;44724;52.332;4.978;2022-10-31T07:43:45;102228.25;;;10.09;100.00
58947;BME280;44724;52.332;4.978;2022-10-31T07:46:16;102233.34;;;10.18;100.00
58947;BME280;44724;52.332;4.978;2022-10-31T07:49:13;102231.22;;;10.25;100.00
58947;BME280;44724;52.332;4.978;2022-10-31T07:52:07;102228.06;;;10.33;100.00
58947;BME280;44724;52.332;4.978;2022-10-31T07:54:33;102229.88;;;10.44;100.00
58947;BME280;44724;52.332;4.978;2022-10-31T07:56:58;102226.13;;;10.51;100.00
58947;BME280;44724;52.332;4.978;2022-10-31T07:59:24;102226.19;;;10.56;100.00
58947;BME280;44724;52.332;4.978;2022-10-31T08:01:50;102224.81;;;10.58;100.00
58947;BME280;44724;52.332;4.978;2022-10-31T08:04:36;102221.63;;;10.67;100.00
58947;BME280;44724;52.332;4.978;2022-10-31T08:07:20;102216.91;;;10.67;100.00
58947;BME280;44724;52.332;4.978;2022-10-31T08:09:53;102214.97;;;10.68;100.00
58947;BME280;44724;52.332;4.978;2022-10-31T08:12:22;102212.53;;;10.71;100.00
58947;BME280;44724;52.332;4.978;2022-10-31T08:14:47;102212.53;;;10.71;100.00
58947;BME280;44724;52.332;4.978;2022-10-31T08:17:15;102205.34;;;10.70;100.00
58947;BME280;44724;52.332;4.978;2022-10-31T08:20:01;102207.28;;;10.70;100.00
58947;BME280;44724;52.332;4.978;2022-10-31T08:22:31;102200.00;;;10.63;100.00
58947;BME280;44724;52.332;4.978;2022-10-31T08:24:58;102205.34;;;10.70;100.00
58947;BME280;44724;52.332;4.978;2022-10-31T08:27:23;102204.31;;;10.76;100.00
58947;BME280;44724;52.332;4.978;2022-10-31T08:29:49;102206.63;;;10.84;100.00
58947;BME280;44724;52.332;4.978;2022-10-31T08:32:14;102203.59;;;10.86;100.00
58947;BME280;44724;52.332;4.978;2022-10-31T08:34:58;102208.63;;;10.89;100.00
58947;BME280;44724;52.332;4.978;2022-10-31T08:37:29;102212.88;;;10.97;100.00
58947;BME280;44724;52.332;4.978;2022-10-31T08:39:55;102222.88;;;10.98;100.00
58947;BME280;44724;52.332;4.978;2022-10-31T08:42:21;102217.59;;;10.96;100.00
58947;BME280;44724;52.332;4.978;2022-10-31T08:44:46;102208.53;;;11.06;100.00
58947;BME280;44724;52.332;4.978;2022-10-31T08:47:12;102203.50;;;11.03;100.00
58947;BME280;44724;52.332;4.978;2022-10-31T08:49:38;102198.91;;;11.14;100.00
58947;BME280;44724;52.332;4.978;2022-10-31T08:52:03;102204.28;;;11.20;100.00
58947;BME280;44724;52.332;4.978;2022-10-31T08:54:33;102200.22;;;11.28;100.00
58947;BME280;44724;52.332;4.978;2022-10-31T08:57:30;102198.94;;;11.41;100.00
58947;BME280;44724;52.332;4.978;2022-10-31T08:59:57;102195.16;;;11.52;100.00
58947;BME280;44724;52.332;4.978;2022-10-31T09:02:25;102186.69;;;11.64;100.00
58947;BME280;44724;52.332;4.978;2022-10-31T09:04:58;102177.84;;;11.67;100.00
58947;BME280;44724;52.332;4.978;2022-10-31T09:07:24;102167.63;;;11.73;100.00
58947;BME280;44724;52.332;4.978;2022-10-31T09:09:49;102161.00;;;11.79;100.00
58947;BME280;44724;52.332;4.978;2022-10-31T09:12:17;102163.44;;;12.03;100.00
58947;BME280;44724;52.332;4.978;2022-10-31T09:15:02;102152.44;;;12.18;100.00
58947;BME280;44724;52.332;4.978;2022-10-31T09:17:34;102148.59;;;12.24;100.00
58947;BME280;44724;52.332;4.978;2022-10-31T09:20:18;102142.53;;;12.32;100.00
58947;BME280;44724;52.332;4.978;2022-10-31T09:22:44;102131.47;;;12.43;100.00
58947;BME280;44724;52.332;4.978;2022-10-31T09:25:10;102132.06;;;12.50;100.00
58947;BME280;44724;52.332;4.978;2022-10-31T09:27:36;102128.22;;;12.56;100.00
58947;BME280;44724;52.332;4.978;2022-10-31T09:30:03;102116.56;;;12.64;100.00
58947;BME280;44724;52.332;4.978;2022-10-31T09:32:29;102116.03;;;12.67;100.00
58947;BME280;44724;52.332;4.978;2022-10-31T09:34:55;102108.00;;;12.76;100.00
58947;BME280;44724;52.332;4.978;2022-10-31T09:37:20;102107.75;;;12.83;100.00
58947;BME280;44724;52.332;4.978;2022-10-31T09:39:46;102103.06;;;13.04;100.00
58947;BME280;44724;52.332;4.978;2022-10-31T09:45:28;102083.34;;;13.16;100.00
58947;BME280;44724;52.332;4.978;2022-10-31T09:50:44;102069.19;;;13.27;100.00
58947;BME280;44724;52.332;4.978;2022-10-31T09:56:11;102085.84;;;13.22;100.00
58947;BME280;44724;52.332;4.978;2022-10-31T09:58:42;102083.91;;;13.23;100.00
58947;BME280;44724;52.332;4.978;2022-10-31T10:06:56;102083.38;;;13.57;100.00
58947;BME280;44724;52.332;4.978;2022-10-31T10:09:52;102082.25;;;13.68;100.00
58947;BME280;44724;52.332;4.978;2022-10-31T10:18:42;102071.09;;;13.78;100.00
58947;BME280;44724;52.332;4.978;2022-10-31T10:29:47;102070.09;;;14.39;100.00
58947;BME280;44724;52.332;4.978;2022-10-31T10:32:24;102058.59;;;14.51;100.00
58947;BME280;44724;52.332;4.978;2022-10-31T10:34:57;102049.03;;;14.73;100.00
58947;BME280;44724;52.332;4.978;2022-10-31T10:37:32;102034.53;;;14.76;100.00
58947;BME280;44724;52.332;4.978;2022-10-31T10:40:11;102028.09;;;14.80;100.00
58947;BME280;44724;52.332;4.978;2022-10-31T10:42:39;102021.88;;;14.89;100.00
58947;BME280;44724;52.332;4.978;2022-10-31T10:45:24;102018.19;;;14.98;100.00
58947;BME280;44724;52.332;4.978;2022-10-31T10:48:16;102015.41;;;14.98;100.00
58947;BME280;44724;52.332;4.978;2022-10-31T10:50:48;102005.34;;;15.02;100.00
58947;BME280;44724;52.332;4.978;2022-10-31T10:56:49;101983.19;;;14.87;100.00
58947;BME280;44724;52.332;4.978;2022-10-31T10:59:23;101977.19;;;15.04;100.00
58947;BME280;44724;52.332;4.978;2022-10-31T11:01:50;101974.06;;;15.11;100.00
58947;BME280;44724;52.332;4.978;2022-10-31T11:04:35;101978.41;;;15.22;100.00
58947;BME280;44724;52.332;4.978;2022-10-31T11:07:06;101959.41;;;15.24;100.00
58947;BME280;44724;52.332;4.978;2022-10-31T11:09:33;101952.88;;;15.39;100.00
58947;BME280;44724;52.332;4.978;2022-10-31T11:14:46;101953.91;;;15.72;100.00
58947;BME280;44724;52.332;4.978;2022-10-31T11:17:29;101949.75;;;15.94;100.00
58947;BME280;44724;52.332;4.978;2022-10-31T11:22:47;101933.38;;;15.87;100.00
58947;BME280;44724;52.332;4.978;2022-10-31T11:27:46;101942.38;;;15.79;100.00
58947;BME280;44724;52.332;4.978;2022-10-31T11:30:13;101937.72;;;15.74;100.00
58947;BME280;44724;52.332;4.978;2022-10-31T11:32:47;101933.56;;;15.67;100.00
58947;BME280;44724;52.332;4.978;2022-10-31T11:35:16;101929.44;;;15.64;100.00
58947;BME280;44724;52.332;4.978;2022-10-31T11:37:45;101935.44;;;15.76;100.00
58947;BME280;44724;52.332;4.978;2022-10-31T11:40:17;101944.81;;;15.86;100.00
58947;BME280;44724;52.332;4.978;2022-10-31T11:42:43;101942.38;;;16.03;100.00
58947;BME280;44724;52.332;4.978;2022-10-31T11:45:25;101932.66;;;16.01;100.00
58947;BME280;44724;52.332;4.978;2022-10-31T11:47:54;101928.66;;;16.26;100.00
58947;BME280;44724;52.332;4.978;2022-10-31T11:50:33;101918.38;;;16.40;100.00
58947;BME280;44724;52.332;4.978;2022-10-31T11:53:00;101919.44;;;16.44;100.00
58947;BME280;44724;52.332;4.978;2022-10-31T11:55:37;101911.63;;;16.60;100.00
58947;BME280;44724;52.332;4.978;2022-10-31T11:58:04;101905.97;;;16.84;100.00
58947;BME280;44724;52.332;4.978;2022-10-31T12:00:36;101903.50;;;16.97;100.00
58947;BME280;44724;52.332;4.978;2022-10-31T12:06:09;101875.13;;;16.89;100.00
58947;BME280;44724;52.332;4.978;2022-10-31T12:08:38;101870.47;;;16.99;100.00
58947;BME280;44724;52.332;4.978;2022-10-31T12:11:09;101870.44;;;16.85;100.00
58947;BME280;44724;52.332;4.978;2022-10-31T12:16:20;101845.94;;;17.09;100.00
58947;BME280;44724;52.332;4.978;2022-10-31T12:19:06;101852.97;;;16.93;100.00
58947;BME280;44724;52.332;4.978;2022-10-31T12:30:28;101861.34;;;16.60;100.00
58947;BME280;44724;52.332;4.978;2022-10-31T12:41:36;101823.88;;;16.61;100.00
58947;BME280;44724;52.332;4.978;2022-10-31T12:49:36;101813.28;;;16.91;100.00
58947;BME280;44724;52.332;4.978;2022-10-31T12:54:46;101794.91;;;16.71;100.00
58947;BME280;44724;52.332;4.978;2022-10-31T12:57:33;101796.56;;;16.58;100.00
58947;BME280;44724;52.332;4.978;2022-10-31T13:00:14;101787.44;;;16.52;100.00
58947;BME280;44724;52.332;4.978;2022-10-31T13:02:57;101784.22;;;16.45;100.00
58947;BME280;44724;52.332;4.978;2022-10-31T13:05:33;101771.81;;;16.51;100.00
58947;BME280;44724;52.332;4.978;2022-10-31T13:08:14;101755.66;;;16.48;100.00
58947;BME280;44724;52.332;4.978;2022-10-31T13:11:05;101752.03;;;16.48;100.00
58947;BME280;44724;52.332;4.978;2022-10-31T13:13:47;101742.31;;;16.45;100.00
58947;BME280;44724;52.332;4.978;2022-10-31T13:16:17;101733.94;;;16.59;100.00
58947;BME280;44724;52.332;4.978;2022-10-31T13:18:54;101728.69;;;16.58;100.00
58947;BME280;44724;52.332;4.978;2022-10-31T13:21:24;101727.84;;;16.57;100.00
58947;BME280;44724;52.332;4.978;2022-10-31T13:23:54;101725.88;;;16.58;100.00
58947;BME280;44724;52.332;4.978;2022-10-31T13:26:32;101709.44;;;16.56;100.00
58947;BME280;44724;52.332;4.978;2022-10-31T13:29:11;101714.16;;;16.56;100.00
58947;BME280;44724;52.332;4.978;2022-10-31T13:31:41;101704.16;;;16.54;100.00
58947;BME280;44724;52.332;4.978;2022-10-31T13:36:58;101708.28;;;16.43;100.00
58947;BME280;44724;52.332;4.978;2022-10-31T13:42:50;101685.59;;;16.31;100.00
58947;BME280;44724;52.332;4.978;2022-10-31T13:45:24;101687.03;;;16.28;100.00
58947;BME280;44724;52.332;4.978;2022-10-31T13:50:39;101678.44;;;16.25;100.00
58947;BME280;44724;52.332;4.978;2022-10-31T13:53:14;101675.84;;;16.14;100.00
58947;BME280;44724;52.332;4.978;2022-10-31T13:55:46;101665.31;;;16.11;100.00
58947;BME280;44724;52.332;4.978;2022-10-31T13:58:28;101673.34;;;15.99;100.00
58947;BME280;44724;52.332;4.978;2022-10-31T14:03:37;101654.44;;;16.10;100.00
58947;BME280;44724;52.332;4.978;2022-10-31T14:06:03;101650.81;;;16.09;100.00
58947;BME280;44724;52.332;4.978;2022-10-31T14:08:33;101652.66;;;16.00;100.00
58947;BME280;44724;52.332;4.978;2022-10-31T14:10:59;101653.72;;;16.04;100.00
58947;BME280;44724;52.332;4.978;2022-10-31T14:13:37;101641.88;;;15.93;100.00
58947;BME280;44724;52.332;4.978;2022-10-31T14:16:26;101632.28;;;16.00;100.00
58947;BME280;44724;52.332;4.978;2022-10-31T14:19:08;101634.88;;;15.96;100.00
58947;BME280;44724;52.332;4.978;2022-10-31T14:21:40;101631.56;;;15.94;100.00
58947;BME280;44724;52.332;4.978;2022-10-31T14:26:57;101623.66;;;15.82;100.00
58947;BME280;44724;52.332;4.978;2022-10-31T14:29:24;101617.25;;;15.82;100.00
58947;BME280;44724;52.332;4.978;2022-10-31T14:31:55;101606.31;;;15.85;100.00
58947;BME280;44724;52.332;4.978;2022-10-31T14:34:24;101608.16;;;15.90;100.00
58947;BME280;44724;52.332;4.978;2022-10-31T14:50:58;101567.19;;;15.71;100.00
58947;BME280;44724;52.332;4.978;2022-10-31T14:54:04;101558.31;;;15.69;100.00
58947;BME280;44724;52.332;4.978;2022-10-31T14:56:29;101559.50;;;15.63;100.00
58947;BME280;44724;52.332;4.978;2022-10-31T14:58:58;101562.22;;;15.68;100.00
58947;BME280;44724;52.332;4.978;2022-10-31T15:01:28;101548.34;;;15.63;100.00
58947;BME280;44724;52.332;4.978;2022-10-31T15:04:19;101542.34;;;15.56;100.00
58947;BME280;44724;52.332;4.978;2022-10-31T15:06:49;101542.66;;;15.54;100.00
58947;BME280;44724;52.332;4.978;2022-10-31T15:09:26;101538.44;;;15.57;100.00